This is the latest recevied weather packets stored in our database for station/object YT1XN-8. If no packets are shown the sender has not sent any weather packets the latest 1 day(s).
| Time | Temp. | Humidity | Pressure | Rain* | Wind** | Luminosity | Snow |
|---|---|---|---|---|---|---|---|
| 1777981241 | 27.22° C | 37% | 1014.5 hPa | 0 mm | 0.45 m/s, 208° | - | - |
| 1777980939 | 27.22° C | 33% | 1014.5 hPa | 0 mm | 0.89 m/s, 178° | - | - |
| 1777980641 | 27.22° C | 33% | 1014.6 hPa | 0 mm | 0.45 m/s, 131° | - | - |
| 1777980279 | 27.78° C | 35% | 1014.7 hPa | 0 mm | 1.79 m/s, 167° | - | - |
| 1777980041 | 27.78° C | 32% | 1014.7 hPa | 0 mm | 0 m/s | - | - |
| 1777979619 | 27.78° C | 34% | 1014.8 hPa | 0 mm | 0.45 m/s, 232° | - | - |
| 1777979441 | 27.78° C | 32% | 1014.8 hPa | 0 mm | 1.34 m/s, 32° | - | - |
| 1777978959 | 27.78° C | 40% | 1014.7 hPa | 0 mm | 1.34 m/s, 242° | - | - |
| 1777978841 | 27.78° C | 38% | 1014.8 hPa | 0 mm | 1.34 m/s, 258° | - | - |
| 1777978299 | 27.22° C | 40% | 1014.8 hPa | 0 mm | 0.45 m/s, 230° | - | - |
| 1777978241 | 27.22° C | 39% | 1014.8 hPa | 0 mm | 0.89 m/s, 252° | - | - |
| 1777977639 | 26.67° C | 39% | 1014.9 hPa | 0 mm | 1.34 m/s, 249° | - | - |
| 1777977041 | 26.11° C | 40% | 1015 hPa | 0 mm | 0.89 m/s, 277° | - | - |
| 1777976979 | 26.11° C | 40% | 1015 hPa | 0 mm | 0.45 m/s, 273° | - | - |
| 1777976440 | 25.56° C | 41% | 1015.1 hPa | 0 mm | 0 m/s | - | - |
| 1777976319 | 25.56° C | 42% | 1015.1 hPa | 0 mm | 0 m/s | - | - |
| 1777975840 | 25.56° C | 39% | 1015.1 hPa | 0 mm | 0 m/s | - | - |
| 1777975659 | 25.56° C | 44% | 1015.2 hPa | 0 mm | 0.45 m/s, 198° | - | - |
| 1777975241 | 25.56° C | 44% | 1015.2 hPa | 0 mm | 0 m/s | - | - |
| 1777974999 | 25.56° C | 44% | 1015.3 hPa | 0 mm | 1.34 m/s, 248° | - | - |
| 1777974640 | 25° C | 46% | 1015.5 hPa | 0 mm | 1.34 m/s, 254° | - | - |
| 1777974339 | 25° C | 49% | 1015.6 hPa | 0 mm | 2.68 m/s, 266° | - | - |
| 1777974041 | 25° C | 46% | 1015.6 hPa | 0 mm | 0.89 m/s, 157° | - | - |
| 1777973679 | 24.44° C | 46% | 1015.7 hPa | 0 mm | 0.89 m/s, 227° | - | - |
| 1777973441 | 24.44° C | 47% | 1015.6 hPa | 0 mm | 1.79 m/s, 269° | - | - |
* Rain latest hour (hover to see other rain measurements)
** Current wind speed in m/s (hover to see current wind gust speed)